Time;durP1;ratioP1;P1;durP2;ratioP2;P2;SDS_P1;SDS_P2;PMS_P1;PMS_P2;Temp;Humidity;BMP_temperature;BMP_pressure;BME280_temperature;BME280_humidity;BME280_pressure;Samples;Min_cycle;Max_cycle;Signal;HPM_P1;HPM_P2
2023/01/26 00:01:14;;;;;;;26.20;10.32;;;0.80;99.90;;;;;;5016589;28;20050;-65
2023/01/26 00:03:40;;;;;;;25.80;9.95;;;0.70;99.90;;;;;;5016457;28;20054;-66
2023/01/26 00:06:08;;;;;;;23.50;9.70;;;0.50;99.90;;;;;;5016662;28;20588;-65
2023/01/26 00:08:38;;;;;;;25.73;11.10;;;0.50;99.90;;;;;;5016908;28;20123;-66
2023/01/26 00:11:06;;;;;;;26.48;10.75;;;0.70;99.90;;;;;;5016201;28;20042;-65
2023/01/26 00:13:33;;;;;;;26.38;10.70;;;0.90;99.90;;;;;;5016006;28;20050;-65
2023/01/26 00:15:59;;;;;;;27.90;11.45;;;0.50;99.90;;;;;;5016242;28;20049;-65
2023/01/26 00:18:24;;;;;;;24.30;9.90;;;0.50;99.90;;;;;;5016114;28;20176;-66
2023/01/26 00:21:01;;;;;;;27.75;10.85;;;0.50;99.90;;;;;;5015944;28;20104;-66
2023/01/26 00:23:29;;;;;;;29.10;11.38;;;2.80;99.90;;;;;;5016114;28;20139;-66
2023/01/26 00:25:55;;;;;;;28.67;11.05;;;0.70;99.90;;;;;;5016015;28;20054;-66
2023/01/26 00:28:20;;;;;;;23.10;9.15;;;2.20;99.90;;;;;;5015968;28;20108;-66
2023/01/26 00:30:47;;;;;;;23.40;8.60;;;0.40;99.90;;;;;;5015851;28;20081;-66
2023/01/26 00:33:13;;;;;;;25.65;10.32;;;0.60;99.90;;;;;;4998358;28;20041;-65
2023/01/26 00:35:43;;;;;;;23.95;10.10;;;0.70;99.90;;;;;;5015835;28;20056;-65
2023/01/26 00:38:12;;;;;;;23.05;8.98;;;0.70;99.90;;;;;;5016062;28;20092;-65
2023/01/26 00:40:38;;;;;;;26.85;10.45;;;0.60;99.90;;;;;;5014572;28;20439;-65
2023/01/26 00:43:05;;;;;;;22.77;10.05;;;1.40;99.90;;;;;;5016319;28;20458;-65
2023/01/26 00:45:31;;;;;;;26.33;10.63;;;1.60;99.90;;;;;;5014406;28;20056;-66
2023/01/26 00:47:56;;;;;;;24.50;9.40;;;2.20;99.90;;;;;;5014935;28;20136;-66
2023/01/26 00:50:22;;;;;;;26.95;10.20;;;0.70;99.90;;;;;;5014340;28;20042;-65
2023/01/26 00:52:48;;;;;;;26.33;9.93;;;0.70;99.90;;;;;;5015506;28;20046;-65
2023/01/26 00:55:13;;;;;;;23.08;9.82;;;0.60;99.90;;;;;;5016320;28;20046;-65
2023/01/26 00:57:39;;;;;;;23.55;8.95;;;0.80;99.90;;;;;;5014510;28;20475;-65
2023/01/26 01:00:06;;;;;;;23.10;9.82;;;1.20;99.90;;;;;;5015381;28;20129;-66
2023/01/26 01:02:32;;;;;;;23.20;8.60;;;0.60;99.90;;;;;;5015887;28;20054;-65
2023/01/26 01:04:57;;;;;;;24.08;9.20;;;2.20;99.90;;;;;;5015215;28;20045;-65
2023/01/26 01:07:23;;;;;;;18.58;9.00;;;1.10;99.90;;;;;;5015243;28;20061;-65
2023/01/26 01:09:49;;;;;;;20.08;8.23;;;0.70;99.90;;;;;;5015141;28;20521;-65
2023/01/26 01:12:15;;;;;;;21.60;8.15;;;0.60;99.90;;;;;;5014474;28;20385;-65
2023/01/26 01:14:40;;;;;;;21.95;7.95;;;0.70;99.90;;;;;;5015076;28;20494;-65
2023/01/26 01:17:06;;;;;;;20.23;8.07;;;0.50;99.90;;;;;;5015058;28;20057;-65
2023/01/26 01:19:33;;;;;;;17.40;8.52;;;1.10;99.90;;;;;;5015765;28;20451;-65
2023/01/26 01:21:58;;;;;;;24.38;8.98;;;0.70;99.90;;;;;;5014834;28;20057;-66
2023/01/26 01:24:24;;;;;;;17.33;7.15;;;1.30;99.90;;;;;;5014988;28;20085;-65
2023/01/26 01:26:50;;;;;;;20.17;9.10;;;1.00;99.90;;;;;;5014888;28;20041;-65
2023/01/26 01:29:16;;;;;;;20.23;8.88;;;2.30;99.90;;;;;;5014851;28;20407;-65
2023/01/26 01:31:42;;;;;;;19.35;8.38;;;0.80;99.90;;;;;;5014786;28;20138;-65
2023/01/26 01:34:08;;;;;;;18.70;7.70;;;0.80;99.90;;;;;;5015021;28;20050;-65
2023/01/26 01:36:33;;;;;;;15.82;6.85;;;0.70;99.90;;;;;;5014705;28;20042;-65
2023/01/26 01:39:00;;;;;;;17.15;7.18;;;0.80;99.90;;;;;;5014790;28;20409;-65
2023/01/26 01:41:26;;;;;;;14.93;6.78;;;1.60;99.90;;;;;;5015196;28;20121;-65
2023/01/26 01:44:21;;;;;;;13.98;5.93;;;2.20;99.90;;;;;;5014603;28;20132;-65
2023/01/26 01:46:59;;;;;;;15.63;6.93;;;1.00;99.90;;;;;;5014553;28;20050;-65
2023/01/26 01:49:33;;;;;;;12.20;6.13;;;0.50;99.90;;;;;;5014487;28;20076;-65
2023/01/26 01:52:25;;;;;;;14.73;6.28;;;0.90;99.90;;;;;;5014775;28;20054;-65
2023/01/26 01:55:05;;;;;;;18.73;7.47;;;2.10;99.90;;;;;;5014404;28;20476;-65
2023/01/26 01:57:43;;;;;;;14.50;6.43;;;0.60;99.90;;;;;;5014683;28;20041;-65
2023/01/26 02:00:11;;;;;;;14.93;5.95;;;0.60;99.90;;;;;;5012353;28;20038;-65
2023/01/26 02:02:37;;;;;;;14.88;6.97;;;0.50;99.90;;;;;;5014794;28;20427;-65
2023/01/26 02:05:16;;;;;;;13.68;6.25;;;0.70;99.90;;;;;;5014270;28;20046;-65
2023/01/26 02:07:42;;;;;;;15.73;6.43;;;1.50;99.90;;;;;;5014283;28;20085;-65
2023/01/26 02:10:18;;;;;;;17.55;6.20;;;0.50;99.90;;;;;;5014088;28;20045;-65
2023/01/26 02:12:46;;;;;;;15.93;6.85;;;0.60;99.90;;;;;;5014145;28;20050;-65
2023/01/26 02:15:12;;;;;;;16.70;6.53;;;1.50;99.90;;;;;;5014047;28;20106;-65
2023/01/26 02:17:39;;;;;;;13.43;5.50;;;1.80;99.90;;;;;;5013985;28;20399;-66
2023/01/26 02:20:27;;;;;;;15.18;6.50;;;0.50;99.90;;;;;;4997017;28;20045;-65
2023/01/26 02:22:59;;;;;;;14.95;5.93;;;0.60;99.90;;;;;;5014625;28;20045;-65
2023/01/26 02:25:43;;;;;;;16.75;6.15;;;0.60;99.90;;;;;;5014017;28;20050;-65
2023/01/26 02:28:09;;;;;;;14.63;5.57;;;0.60;99.90;;;;;;5014482;28;20089;-65
2023/01/26 02:30:35;;;;;;;14.57;6.25;;;0.40;99.90;;;;;;5013906;28;20085;-65
2023/01/26 02:33:00;;;;;;;14.57;6.45;;;2.10;99.90;;;;;;5013924;28;20542;-65
2023/01/26 02:35:26;;;;;;;15.68;7.03;;;0.90;99.90;;;;;;5012780;28;20396;-65
2023/01/26 02:37:52;;;;;;;17.65;6.68;;;0.90;99.90;;;;;;5014077;28;20128;-65
2023/01/26 02:40:48;;;;;;;16.02;6.78;;;0.60;99.90;;;;;;5013056;28;20054;-65
2023/01/26 02:43:14;;;;;;;15.73;6.32;;;0.50;99.90;;;;;;5014065;28;20042;-65
2023/01/26 02:45:41;;;;;;;15.57;6.47;;;0.50;99.90;;;;;;5012485;28;20188;-65
2023/01/26 02:48:07;;;;;;;17.40;6.50;;;0.50;99.90;;;;;;5013650;28;20089;-65
2023/01/26 02:50:33;;;;;;;16.35;6.30;;;0.70;99.90;;;;;;4996219;28;20080;-65
2023/01/26 02:52:59;;;;;;;15.82;6.43;;;0.50;99.90;;;;;;5013662;28;20065;-65
2023/01/26 02:55:26;;;;;;;14.57;5.80;;;0.80;99.90;;;;;;4996208;28;20081;-65
2023/01/26 02:57:57;;;;;;;16.02;7.53;;;1.10;99.90;;;;;;5013551;28;20060;-65
2023/01/26 03:00:33;;;;;;;15.48;6.00;;;0.60;99.90;;;;;;5013873;28;20052;-65
2023/01/26 03:03:01;;;;;;;16.35;7.18;;;0.50;99.90;;;;;;5012368;28;20053;-65
2023/01/26 03:05:27;;;;;;;18.67;8.07;;;0.40;99.90;;;;;;5013501;28;20065;-65
2023/01/26 03:07:54;;;;;;;16.33;6.72;;;0.70;99.90;;;;;;5013360;28;20050;-65
2023/01/26 03:10:21;;;;;;;19.00;7.05;;;0.70;99.90;;;;;;5013416;28;20037;-65
2023/01/26 03:12:46;;;;;;;15.25;7.10;;;0.60;99.90;;;;;;5017545;28;20432;-65
2023/01/26 03:29:02;;;;;;;12.10;5.50;;;0.80;99.90;;;;;;5015735;28;20140;-65
2023/01/26 03:31:28;;;;;;;13.80;5.93;;;1.00;99.90;;;;;;5016989;28;20133;-65
2023/01/26 03:33:53;;;;;;;12.88;5.63;;;0.70;99.90;;;;;;5016015;28;20396;-65
2023/01/26 03:36:19;;;;;;;15.07;5.70;;;1.30;99.90;;;;;;5016924;28;20081;-65
2023/01/26 03:38:45;;;;;;;13.50;5.88;;;1.60;99.90;;;;;;5015728;28;20100;-65
2023/01/26 03:57:36;;;;;;;16.08;7.13;;;1.20;99.90;;;;;;5015538;28;20060;-65
2023/01/26 04:00:03;;;;;;;16.50;6.72;;;0.70;99.90;;;;;;5016465;28;20037;-65
2023/01/26 04:10:46;;;;;;;18.25;7.18;;;0.90;99.90;;;;;;5016218;28;20093;-65
2023/01/26 04:21:34;;;;;;;17.30;7.35;;;1.00;99.90;;;;;;5015640;28;20100;-65
2023/01/26 04:24:02;;;;;;;18.45;7.15;;;0.80;99.90;;;;;;5015069;28;20061;-65
2023/01/26 04:26:36;;;;;;;14.05;5.35;;;0.70;99.90;;;;;;5016534;28;20057;-65
2023/01/26 04:29:07;;;;;;;13.90;6.50;;;1.30;99.90;;;;;;5016470;28;20195;-65
2023/01/26 04:31:33;;;;;;;15.43;6.80;;;1.60;99.90;;;;;;5014645;28;20480;-65
2023/01/26 04:34:00;;;;;;;13.25;5.80;;;0.80;99.90;;;;;;5016349;28;20092;-65
2023/01/26 04:36:26;;;;;;;14.88;5.38;;;2.20;99.90;;;;;;5015388;28;20379;-65
2023/01/26 04:38:52;;;;;;;15.85;6.30;;;0.90;99.90;;;;;;5015749;28;20132;-65
2023/01/26 04:41:18;;;;;;;15.82;6.47;;;0.80;99.90;;;;;;5016466;28;20038;-65
2023/01/26 04:43:44;;;;;;;16.05;6.53;;;2.40;99.90;;;;;;5015669;28;20480;-65
2023/01/26 04:46:10;;;;;;;16.33;6.78;;;0.80;99.90;;;;;;5016677;28;20492;-65
2023/01/26 04:48:36;;;;;;;16.20;6.45;;;1.10;99.90;;;;;;5015490;28;20111;-65
2023/01/26 04:51:05;;;;;;;14.80;6.38;;;1.50;99.90;;;;;;5015106;28;20049;-65
2023/01/26 04:53:32;;;;;;;13.77;5.70;;;1.00;99.90;;;;;;5015707;28;20108;-65
2023/01/26 04:55:58;;;;;;;15.48;6.40;;;0.70;99.90;;;;;;5015379;28;20458;-65
2023/01/26 04:58:24;;;;;;;17.88;8.02;;;2.40;99.90;;;;;;5015444;28;20061;-65
2023/01/26 05:00:51;;;;;;;17.85;6.40;;;2.40;99.90;;;;;;5015333;28;20046;-65
2023/01/26 05:03:17;;;;;;;14.80;7.00;;;1.10;99.90;;;;;;5015012;28;20056;-65
2023/01/26 05:05:43;;;;;;;18.30;6.30;;;1.30;99.90;;;;;;5015302;28;20438;-65
2023/01/26 05:08:09;;;;;;;17.52;6.45;;;1.60;99.90;;;;;;5015165;28;20050;-65
2023/01/26 05:10:35;;;;;;;16.60;7.13;;;1.40;99.90;;;;;;5015115;28;20495;-65
2023/01/26 05:13:00;;;;;;;14.15;6.07;;;1.70;99.90;;;;;;5015137;28;20396;-65
2023/01/26 05:15:26;;;;;;;17.13;6.32;;;1.10;99.90;;;;;;5015325;28;20050;-65
2023/01/26 05:17:52;;;;;;;15.60;6.80;;;1.00;99.90;;;;;;5014955;28;20049;-65
2023/01/26 05:20:18;;;;;;;15.18;6.45;;;1.00;99.90;;;;;;5015016;28;20050;-65
2023/01/26 05:22:43;;;;;;;17.73;6.53;;;1.20;99.90;;;;;;5015315;28;20129;-65
2023/01/26 05:25:10;;;;;;;19.00;7.00;;;1.20;99.90;;;;;;5014847;28;20476;-65
2023/01/26 05:27:35;;;;;;;15.20;6.35;;;1.00;99.90;;;;;;5013652;28;20050;-65
2023/01/26 05:30:01;;;;;;;15.85;6.35;;;1.30;99.90;;;;;;5014957;28;20085;-65
2023/01/26 05:32:29;;;;;;;16.42;6.53;;;1.10;99.90;;;;;;5013532;28;20073;-65
2023/01/26 05:34:55;;;;;;;17.48;6.30;;;1.30;99.90;;;;;;5014514;28;20042;-65
2023/01/26 05:37:24;;;;;;;16.40;5.72;;;1.00;99.90;;;;;;5014679;28;20081;-65
2023/01/26 05:39:49;;;;;;;15.68;6.18;;;1.10;99.90;;;;;;5014660;28;20060;-65
2023/01/26 05:42:15;;;;;;;12.85;5.20;;;2.20;99.90;;;;;;5013159;28;20046;-64
2023/01/26 05:44:41;;;;;;;14.88;6.15;;;1.50;99.90;;;;;;5013417;28;20077;-64
2023/01/26 05:47:07;;;;;;;13.85;5.07;;;1.30;99.90;;;;;;5013316;28;20084;-64
2023/01/26 05:49:33;;;;;;;11.50;5.60;;;1.30;99.90;;;;;;5014431;28;20164;-65
2023/01/26 05:51:58;;;;;;;14.15;5.97;;;1.40;99.90;;;;;;5013206;28;20061;-65
2023/01/26 05:54:25;;;;;;;15.70;6.35;;;1.90;99.90;;;;;;5014097;28;20096;-65
2023/01/26 05:56:52;;;;;;;13.13;5.45;;;1.20;99.90;;;;;;5015106;28;20103;-65
2023/01/26 05:59:18;;;;;;;14.77;6.03;;;1.50;99.90;;;;;;5013880;28;20396;-65
2023/01/26 06:01:44;;;;;;;13.25;5.90;;;1.20;99.90;;;;;;5014281;28;20140;-64
2023/01/26 06:04:09;;;;;;;14.05;5.65;;;1.40;99.90;;;;;;5014276;28;20112;-64
2023/01/26 06:06:35;;;;;;;14.23;5.20;;;2.50;99.90;;;;;;5013250;28;20052;-65
2023/01/26 06:09:01;;;;;;;16.63;6.78;;;1.60;99.90;;;;;;5014134;28;20404;-65
2023/01/26 06:11:26;;;;;;;13.05;6.57;;;1.10;99.90;;;;;;5013989;28;20046;-65
2023/01/26 06:13:52;;;;;;;16.10;6.03;;;1.00;99.90;;;;;;5012834;28;20125;-65
2023/01/26 06:16:18;;;;;;;16.95;6.47;;;1.10;99.90;;;;;;5012917;28;20045;-64
2023/01/26 06:18:47;;;;;;;18.63;6.78;;;1.10;99.90;;;;;;4996488;28;20081;-64
2023/01/26 06:21:13;;;;;;;18.67;6.68;;;2.00;99.90;;;;;;5013824;28;20052;-64
2023/01/26 06:23:38;;;;;;;13.45;6.07;;;1.60;99.90;;;;;;5014571;28;20061;-64
2023/01/26 06:26:05;;;;;;;19.50;6.95;;;1.80;99.90;;;;;;5013926;28;20125;-64
2023/01/26 06:28:31;;;;;;;15.10;5.25;;;1.50;99.90;;;;;;5013869;28;20053;-65
2023/01/26 06:31:01;;;;;;;15.95;5.85;;;2.30;99.90;;;;;;5012565;28;20046;-64
2023/01/26 06:33:27;;;;;;;18.45;6.35;;;1.60;99.90;;;;;;5013826;28;20053;-64
2023/01/26 06:35:54;;;;;;;17.17;6.50;;;1.70;99.90;;;;;;5013544;28;20038;-64
2023/01/26 06:38:20;;;;;;;23.95;7.00;;;2.10;99.90;;;;;;5013671;28;20048;-64
2023/01/26 06:40:46;;;;;;;13.35;5.47;;;1.20;99.90;;;;;;5013671;28;20208;-64
2023/01/26 06:43:12;;;;;;;16.25;6.43;;;1.50;99.90;;;;;;5013673;28;20056;-64
2023/01/26 06:45:37;;;;;;;24.65;7.47;;;1.50;99.90;;;;;;5012164;28;20045;-64
2023/01/26 06:48:03;;;;;;;17.85;5.90;;;1.60;99.90;;;;;;5013611;28;20042;-65
2023/01/26 06:50:32;;;;;;;14.98;5.70;;;1.50;99.90;;;;;;5014365;28;20125;-64
2023/01/26 06:53:14;;;;;;;18.48;6.88;;;1.50;99.90;;;;;;5013627;28;20049;-64
2023/01/26 06:55:40;;;;;;;16.38;6.18;;;1.80;99.90;;;;;;5014099;28;20046;-64
2023/01/26 06:58:06;;;;;;;24.65;7.00;;;1.30;99.90;;;;;;5013585;28;20061;-64
2023/01/26 07:00:32;;;;;;;16.52;6.32;;;1.30;99.90;;;;;;5013593;28;20065;-64
2023/01/26 07:02:57;;;;;;;20.48;7.45;;;1.30;99.90;;;;;;5012300;28;20053;-64
2023/01/26 07:05:23;;;;;;;15.93;6.45;;;1.30;99.90;;;;;;5013741;28;20046;-64
2023/01/26 07:07:49;;;;;;;17.15;6.53;;;1.90;99.90;;;;;;5013702;28;20050;-64
2023/01/26 07:10:14;;;;;;;14.20;5.82;;;1.40;99.90;;;;;;4996288;28;20121;-64
2023/01/26 07:12:44;;;;;;;31.15;8.48;;;1.40;99.90;;;;;;5012446;28;20046;-64
2023/01/26 07:15:11;;;;;;;14.93;6.10;;;2.30;99.90;;;;;;5013687;28;20045;-64
2023/01/26 07:17:38;;;;;;;20.02;7.75;;;1.40;99.90;;;;;;5013370;28;20054;-64
2023/01/26 07:20:04;;;;;;;24.52;8.05;;;2.10;99.90;;;;;;5012076;28;20085;-64
2023/01/26 07:22:30;;;;;;;25.73;7.85;;;1.20;99.90;;;;;;5011813;28;20408;-64
2023/01/26 07:24:56;;;;;;;18.65;6.70;;;1.90;99.90;;;;;;5013938;28;20066;-64
2023/01/26 07:27:21;;;;;;;23.13;7.15;;;1.60;99.90;;;;;;5013321;28;20042;-64
2023/01/26 07:29:47;;;;;;;18.98;7.03;;;1.40;99.90;;;;;;5013288;28;20050;-64
2023/01/26 07:32:13;;;;;;;26.52;7.75;;;1.80;99.90;;;;;;5013722;28;20068;-64
2023/01/26 07:34:38;;;;;;;31.88;8.90;;;2.60;99.90;;;;;;5013267;28;20046;-64
2023/01/26 07:37:04;;;;;;;27.08;8.80;;;2.60;99.90;;;;;;5013302;28;20088;-64
2023/01/26 07:39:30;;;;;;;27.75;8.27;;;2.00;99.90;;;;;;5013717;28;20165;-64
2023/01/26 07:41:56;;;;;;;23.48;7.47;;;1.70;99.90;;;;;;5012424;28;20053;-64
2023/01/26 07:44:22;;;;;;;27.15;9.27;;;2.00;99.90;;;;;;5013394;28;20053;-64
2023/01/26 07:46:47;;;;;;;24.55;8.07;;;1.60;99.90;;;;;;5013043;28;20180;-64
2023/01/26 07:49:13;;;;;;;21.33;6.75;;;1.90;99.90;;;;;;5012804;28;20049;-64
2023/01/26 07:51:39;;;;;;;21.48;7.35;;;2.00;99.90;;;;;;5013243;28;20042;-64
2023/01/26 07:54:06;;;;;;;24.45;7.07;;;2.00;99.90;;;;;;5013277;28;20073;-64
2023/01/26 07:56:31;;;;;;;30.40;7.85;;;1.90;99.90;;;;;;5012070;28;20053;-64
2023/01/26 07:58:57;;;;;;;20.95;6.43;;;2.00;99.90;;;;;;5016034;28;20046;-63
2023/01/26 08:01:23;;;;;;;17.65;6.25;;;1.90;99.90;;;;;;5015801;28;20471;-64
2023/01/26 08:03:50;;;;;;;27.33;6.95;;;2.20;99.90;;;;;;5016650;28;20391;-64
2023/01/26 08:06:17;;;;;;;17.58;6.32;;;3.10;99.90;;;;;;5015666;28;20473;-64
2023/01/26 08:08:43;;;;;;;21.95;6.93;;;1.70;99.90;;;;;;5016558;28;20042;-64
2023/01/26 08:11:10;;;;;;;17.65;6.03;;;2.50;99.90;;;;;;5017277;28;20128;-64
2023/01/26 08:13:37;;;;;;;15.88;6.18;;;1.90;99.90;;;;;;5016421;28;20063;-64
2023/01/26 08:16:11;;;;;;;16.70;6.28;;;2.40;99.90;;;;;;5016387;28;20049;-64
2023/01/26 08:18:41;;;;;;;18.23;6.93;;;1.80;99.90;;;;;;5019071;28;20053;-65
2023/01/26 08:21:07;;;;;;;17.70;5.65;;;1.80;99.90;;;;;;5015667;28;20507;-64
2023/01/26 08:23:33;;;;;;;15.23;4.65;;;1.90;99.90;;;;;;5016846;28;20065;-64
2023/01/26 08:26:10;;;;;;;12.88;4.57;;;1.80;99.90;;;;;;5016253;28;20041;-64
2023/01/26 08:28:36;;;;;;;14.75;3.83;;;3.50;99.90;;;;;;5016753;28;20056;-64
2023/01/26 08:31:07;;;;;;;21.23;4.15;;;1.80;99.90;;;;;;5016791;28;20124;-65
2023/01/26 08:33:33;;;;;;;15.00;3.97;;;2.30;99.90;;;;;;5016325;28;20480;-65
2023/01/26 08:36:04;;;;;;;16.98;4.07;;;2.90;99.90;;;;;;5016091;28;20077;-65
2023/01/26 08:38:31;;;;;;;11.68;3.58;;;2.00;99.90;;;;;;5015651;28;20357;-65
2023/01/26 08:40:57;;;;;;;11.50;2.90;;;2.60;99.90;;;;;;5015926;28;20385;-65
2023/01/26 08:43:23;;;;;;;18.02;3.45;;;2.80;99.90;;;;;;5015912;28;20054;-64
2023/01/26 08:45:49;;;;;;;15.02;3.03;;;2.00;99.90;;;;;;5015998;28;20050;-65
2023/01/26 08:48:14;;;;;;;7.95;2.10;;;2.20;99.90;;;;;;5015797;28;20053;-65
2023/01/26 08:50:40;;;;;;;12.38;2.63;;;2.30;99.90;;;;;;5015696;28;20046;-64
2023/01/26 08:53:06;;;;;;;18.52;3.47;;;2.40;99.90;;;;;;5014727;28;20045;-64
2023/01/26 08:55:33;;;;;;;12.95;2.53;;;2.30;99.90;;;;;;5016212;28;20144;-64
2023/01/26 09:03:10;;;;;;;13.90;2.65;;;2.00;99.90;;;;;;5101420;23;20068;-66
2023/01/26 09:05:38;;;;;;;11.07;3.70;;;2.40;99.90;;;;;;5005141;28;20058;-69
2023/01/26 09:08:05;;;;;;;8.73;2.00;;;2.30;99.90;;;;;;5015054;28;20054;-68
2023/01/26 09:10:32;;;;;;;18.23;2.95;;;2.30;99.90;;;;;;5013338;28;20042;-67
2023/01/26 09:12:58;;;;;;;18.80;3.75;;;2.50;99.90;;;;;;5011054;28;20057;-70
2023/01/26 09:15:24;;;;;;;19.67;2.45;;;2.40;99.90;;;;;;5001327;28;20438;-69
2023/01/26 09:17:51;;;;;;;22.75;3.63;;;2.30;99.90;;;;;;4997524;28;20049;-73
2023/01/26 09:20:17;;;;;;;20.45;3.15;;;2.70;99.90;;;;;;5001982;28;20051;-69
2023/01/26 09:22:43;;;;;;;21.95;3.30;;;2.50;99.90;;;;;;4999111;28;20047;-72
2023/01/26 09:25:09;;;;;;;19.90;3.75;;;2.90;99.90;;;;;;4994286;28;20046;-73
2023/01/26 09:27:35;;;;;;;18.40;3.05;;;3.60;99.90;;;;;;4993670;28;20046;-72
2023/01/26 09:30:02;;;;;;;23.08;3.42;;;3.10;99.90;;;;;;4994081;28;20046;-73
2023/01/26 09:32:28;;;;;;;20.85;3.70;;;3.70;99.90;;;;;;4978024;28;20060;-74
2023/01/26 09:34:55;;;;;;;22.65;3.55;;;3.60;99.90;;;;;;4995208;28;20090;-74
2023/01/26 09:37:20;;;;;;;22.33;3.60;;;3.00;99.90;;;;;;4994257;28;20443;-74
2023/01/26 09:39:46;;;;;;;19.02;3.95;;;3.70;99.90;;;;;;4994098;28;20046;-70
2023/01/26 09:42:27;;;;;;;20.98;4.70;;;3.30;99.90;;;;;;4994935;28;20073;-69
2023/01/26 09:45:18;;;;;;;26.55;4.30;;;3.10;99.90;;;;;;4993491;28;20050;-75
2023/01/26 09:48:02;;;;;;;22.80;3.05;;;3.10;99.90;;;;;;4981874;28;20111;-70
2023/01/26 09:51:00;;;;;;;15.82;2.63;;;3.70;99.90;;;;;;5003401;28;20100;-69
2023/01/26 09:53:50;;;;;;;18.67;2.63;;;3.50;99.90;;;;;;5005984;28;20121;-69
2023/01/26 09:56:22;;;;;;;24.15;2.63;;;3.70;99.90;;;;;;4994505;28;20050;-69
2023/01/26 09:59:05;;;;;;;7.93;2.05;;;3.50;99.90;;;;;;5002011;28;20037;-70
2023/01/26 10:01:41;;;;;;;18.50;3.97;;;3.50;99.90;;;;;;5003557;28;20491;-70
2023/01/26 10:04:23;;;;;;;23.45;3.20;;;4.00;99.90;;;;;;5005235;28;20403;-69
2023/01/26 10:06:53;;;;;;;13.17;3.00;;;3.90;99.90;;;;;;5002097;28;20042;-70
2023/01/26 10:09:26;;;;;;;16.85;2.53;;;3.90;99.90;;;;;;5001956;28;20286;-69
2023/01/26 10:12:03;;;;;;;14.65;2.15;;;4.00;99.90;;;;;;5002410;28;20121;-69
2023/01/26 10:14:44;;;;;;;18.15;2.55;;;4.20;99.90;;;;;;5003775;28;20046;-70
2023/01/26 10:17:33;;;;;;;14.70;2.88;;;4.10;99.90;;;;;;5003176;28;20114;-68
2023/01/26 10:20:35;;;;;;;16.77;2.88;;;4.40;99.90;;;;;;5008048;28;20042;-67
2023/01/26 10:23:35;;;;;;;17.67;2.58;;;4.10;99.90;;;;;;5002421;28;20514;-68
2023/01/26 10:26:18;;;;;;;14.27;2.28;;;4.30;99.90;;;;;;4990103;28;20058;-68
2023/01/26 10:28:46;;;;;;;18.58;3.50;;;4.30;99.90;;;;;;5001203;28;20045;-68
2023/01/26 10:31:21;;;;;;;18.55;2.72;;;4.80;99.90;;;;;;5007143;28;20394;-68
2023/01/26 10:34:22;;;;;;;8.93;2.40;;;4.40;99.90;;;;;;5004038;28;20461;-68
2023/01/26 10:36:48;;;;;;;13.48;2.80;;;4.50;99.90;;;;;;5003850;28;20088;-67
2023/01/26 10:39:17;;;;;;;18.05;2.45;;;4.80;99.90;;;;;;5004547;28;20069;-68
2023/01/26 10:41:59;;;;;;;10.85;1.80;;;4.80;99.90;;;;;;5003747;28;20128;-68
2023/01/26 10:44:34;;;;;;;14.05;1.63;;;4.80;99.90;;;;;;5001350;28;20074;-68
2023/01/26 10:47:13;;;;;;;12.00;1.85;;;4.90;99.90;;;;;;5002412;28;20145;-68
2023/01/26 10:49:39;;;;;;;15.77;1.92;;;4.90;99.90;;;;;;5001068;28;20042;-68
2023/01/26 10:52:17;;;;;;;12.93;1.75;;;5.20;99.90;;;;;;5005689;28;20049;-67
2023/01/26 10:54:46;;;;;;;11.30;1.90;;;5.20;99.90;;;;;;5002571;28;20047;-68
2023/01/26 10:57:27;;;;;;;9.50;1.45;;;5.10;99.90;;;;;;5002915;28;20054;-68
2023/01/26 11:00:07;;;;;;;15.57;2.08;;;5.50;99.90;;;;;;5004523;28;20507;-68
2023/01/26 11:02:34;;;;;;;16.05;1.90;;;5.30;99.90;;;;;;5002610;28;20065;-68
2023/01/26 11:05:01;;;;;;;9.50;1.17;;;5.40;99.90;;;;;;5002241;28;20058;-68
2023/01/26 11:07:48;;;;;;;11.95;1.27;;;5.50;99.90;;;;;;5002874;28;20041;-68
2023/01/26 11:10:38;;;;;;;9.48;1.55;;;5.70;99.90;;;;;;5003454;28;20410;-69
2023/01/26 11:13:18;;;;;;;12.50;1.80;;;5.60;99.90;;;;;;5002830;28;20042;-68
2023/01/26 11:15:51;;;;;;;14.10;1.27;;;5.70;99.90;;;;;;5002621;28;20042;-68
2023/01/26 11:18:45;;;;;;;10.23;1.48;;;5.80;99.90;;;;;;5006688;28;20042;-69
2023/01/26 11:21:32;;;;;;;6.80;1.20;;;5.80;99.90;;;;;;5004089;28;20046;-68
2023/01/26 11:24:08;;;;;;;10.10;1.20;;;6.10;99.90;;;;;;5003995;28;20046;-68
2023/01/26 11:26:58;;;;;;;11.18;1.40;;;5.80;99.90;;;;;;5003974;28;20038;-69
2023/01/26 11:29:27;;;;;;;8.13;2.35;;;6.00;99.90;;;;;;5001874;28;20054;-68
2023/01/26 11:32:05;;;;;;;14.32;1.67;;;6.00;99.90;;;;;;5005049;28;20042;-68
2023/01/26 11:34:42;;;;;;;10.60;1.40;;;5.90;99.90;;;;;;5007283;28;20428;-69
2023/01/26 11:37:32;;;;;;;7.07;1.35;;;6.00;99.90;;;;;;5007364;28;20468;-68
2023/01/26 11:40:11;;;;;;;10.20;2.33;;;6.00;99.90;;;;;;5007405;28;20046;-68
2023/01/26 11:43:12;;;;;;;11.95;1.08;;;6.00;99.90;;;;;;5007817;28;20487;-68
2023/01/26 11:45:56;;;;;;;6.40;1.40;;;6.00;99.90;;;;;;5005298;28;20057;-68
2023/01/26 11:48:50;;;;;;;8.05;1.25;;;6.20;99.90;;;;;;4991001;28;20387;-68
2023/01/26 11:51:22;;;;;;;10.82;1.10;;;6.10;99.90;;;;;;5006876;28;20042;-68
2023/01/26 11:54:38;;;;;;;7.55;0.90;;;6.40;99.90;;;;;;5006418;28;20053;-67
2023/01/26 11:57:19;;;;;;;14.40;1.40;;;6.20;99.90;;;;;;4983398;28;20085;-67
2023/01/26 11:59:59;;;;;;;11.45;1.00;;;6.30;99.90;;;;;;5005639;28;20046;-67
2023/01/26 12:02:24;;;;;;;9.60;1.13;;;6.20;99.90;;;;;;5005393;28;20480;-68
2023/01/26 12:04:51;;;;;;;5.65;0.80;;;6.40;99.90;;;;;;5007034;28;20097;-65
2023/01/26 12:07:20;;;;;;;3.85;0.93;;;6.40;99.90;;;;;;5005145;28;20046;-66
2023/01/26 12:09:47;;;;;;;8.07;1.38;;;6.70;99.90;;;;;;5006551;28;20046;-66
2023/01/26 12:12:31;;;;;;;11.82;1.27;;;6.50;99.90;;;;;;5006547;28;20479;-66
2023/01/26 12:15:03;;;;;;;7.97;1.20;;;6.70;99.90;;;;;;5006753;28;20121;-67
2023/01/26 12:17:34;;;;;;;8.30;1.25;;;6.40;99.90;;;;;;5006318;28;20158;-66
2023/01/26 12:20:25;;;;;;;9.30;1.27;;;6.60;99.90;;;;;;5004875;28;20046;-67
2023/01/26 12:23:04;;;;;;;11.30;1.52;;;6.30;99.90;;;;;;4994969;28;20419;-67
2023/01/26 12:25:37;;;;;;;14.63;1.20;;;6.60;99.90;;;;;;5005320;28;20053;-66
2023/01/26 12:28:35;;;;;;;8.95;1.10;;;6.40;99.90;;;;;;5003610;28;20038;-67
2023/01/26 12:31:28;;;;;;;7.70;0.90;;;6.50;99.90;;;;;;5004671;28;20117;-67
2023/01/26 12:33:55;;;;;;;8.73;1.00;;;6.60;99.90;;;;;;5006230;28;20086;-66
2023/01/26 12:36:45;;;;;;;11.75;1.40;;;6.70;99.90;;;;;;5003555;28;20046;-66
2023/01/26 12:39:27;;;;;;;10.93;1.33;;;6.50;99.90;;;;;;5006041;28;20042;-70
2023/01/26 12:42:30;;;;;;;11.05;1.30;;;6.50;99.90;;;;;;5005225;28;20050;-67
2023/01/26 12:44:59;;;;;;;9.45;0.93;;;6.70;99.90;;;;;;5004767;28;20168;-68
2023/01/26 12:47:45;;;;;;;8.32;1.00;;;6.70;99.90;;;;;;5011479;28;20451;-68
2023/01/26 12:50:26;;;;;;;7.30;0.80;;;6.80;99.90;;;;;;5008463;28;20038;-68
2023/01/26 12:53:21;;;;;;;6.95;0.90;;;6.80;99.90;;;;;;5007457;28;20042;-66
2023/01/26 12:56:01;;;;;;;8.60;0.65;;;6.80;99.90;;;;;;4990186;28;20046;-67
2023/01/26 12:58:55;;;;;;;6.25;1.20;;;7.00;99.90;;;;;;5005760;28;20557;-67
2023/01/26 13:01:24;;;;;;;6.50;0.88;;;7.00;99.90;;;;;;5001413;28;20133;-67
2023/01/26 13:03:58;;;;;;;7.10;0.80;;;7.10;99.90;;;;;;5006602;28;20392;-67
2023/01/26 13:06:26;;;;;;;3.97;0.75;;;6.80;99.90;;;;;;5004503;28;20050;-67
2023/01/26 13:09:00;;;;;;;7.85;0.80;;;7.20;99.90;;;;;;5003293;28;20034;-68
2023/01/26 13:11:42;;;;;;;7.60;0.80;;;7.10;99.90;;;;;;5003041;28;20042;-67
2023/01/26 13:14:27;;;;;;;5.30;0.70;;;6.60;99.90;;;;;;5004900;28;20074;-67
2023/01/26 13:16:53;;;;;;;5.00;0.90;;;6.80;99.90;;;;;;5005146;28;20100;-68
2023/01/26 13:19:50;;;;;;;6.97;1.05;;;6.90;99.90;;;;;;5002706;28;20042;-67
2023/01/26 13:22:24;;;;;;;4.32;0.80;;;6.60;99.90;;;;;;5005835;28;20415;-68
2023/01/26 13:25:11;;;;;;;5.63;0.90;;;6.90;99.90;;;;;;5002304;28;20038;-68
2023/01/26 13:27:36;;;;;;;8.73;0.80;;;6.80;99.90;;;;;;5004038;28;20567;-67
2023/01/26 13:30:23;;;;;;;7.30;1.02;;;6.70;99.90;;;;;;5001824;28;20117;-67
2023/01/26 13:32:50;;;;;;;6.80;0.60;;;6.70;99.90;;;;;;5002409;28;20121;-67
2023/01/26 13:35:20;;;;;;;6.13;1.00;;;6.70;99.90;;;;;;5002254;28;20062;-67
2023/01/26 13:37:59;;;;;;;10.13;1.13;;;6.80;99.90;;;;;;5003871;28;20048;-67
2023/01/26 13:40:33;;;;;;;3.15;1.13;;;6.70;99.90;;;;;;5003328;28;20088;-67
2023/01/26 13:43:26;;;;;;;5.50;0.82;;;6.70;99.90;;;;;;5002589;28;20130;-68
2023/01/26 13:46:19;;;;;;;5.72;0.70;;;6.60;99.90;;;;;;5004227;28;20419;-67
2023/01/26 13:48:47;;;;;;;7.10;1.10;;;6.50;99.90;;;;;;5003143;28;20046;-68
2023/01/26 13:51:27;;;;;;;8.13;1.48;;;6.60;99.90;;;;;;5002527;28;20184;-72
2023/01/26 13:54:13;;;;;;;9.63;1.10;;;6.70;99.90;;;;;;5002664;28;20046;-68
2023/01/26 13:56:41;;;;;;;8.05;1.15;;;6.70;99.90;;;;;;5004116;28;20099;-68
2023/01/26 13:59:11;;;;;;;7.75;1.20;;;7.00;99.90;;;;;;5003064;28;20057;-67
2023/01/26 14:01:48;;;;;;;8.95;1.10;;;6.80;99.90;;;;;;5002669;28;20100;-67